createdAt,value
2022-12-14T00:01:45.093Z,99562.09
2022-12-14T00:04:16.439Z,99571.97
2022-12-14T00:06:43.712Z,99568.31
2022-12-14T00:09:11.273Z,99575.84
2022-12-14T00:11:38.915Z,99566.81
2022-12-14T00:14:07.007Z,99567.06
2022-12-14T00:16:35.287Z,99564.94
2022-12-14T00:19:03.200Z,99567.75
2022-12-14T00:21:30.426Z,99565.44
2022-12-14T00:23:59.404Z,99562.41
2022-12-14T00:26:30.123Z,99552.53
2022-12-14T00:29:00.386Z,99549.91
2022-12-14T00:31:28.200Z,99548.88
2022-12-14T00:33:55.652Z,99547.63
2022-12-14T00:36:23.404Z,99546.56
2022-12-14T00:38:51.876Z,99540.06
2022-12-14T00:41:19.391Z,99544.75
2022-12-14T00:43:49.300Z,99532.06
2022-12-14T00:46:18.175Z,99528.63
2022-12-14T00:48:45.773Z,99531.31
2022-12-14T00:51:15.071Z,99532.13
2022-12-14T00:53:44.278Z,99522.72
2022-12-14T00:56:11.834Z,99521.50
2022-12-14T00:58:39.134Z,99518.91
2022-12-14T01:01:09.771Z,99520.75
2022-12-14T01:03:37.115Z,99518.19
2022-12-14T01:06:04.521Z,99525.69
2022-12-14T01:08:35.948Z,99525.63
2022-12-14T01:11:05.763Z,99531.97
2022-12-14T01:13:33.776Z,99542.25
2022-12-14T01:16:06.783Z,99551.19
2022-12-14T01:18:35.856Z,99555.31
2022-12-14T01:21:09.535Z,99563.69
2022-12-14T01:23:37.586Z,99565.16
2022-12-14T01:26:04.864Z,99560.56
2022-12-14T01:28:32.249Z,99559.34
2022-12-14T01:30:59.542Z,99546.63
2022-12-14T01:33:27.008Z,99554.00
2022-12-14T01:35:55.496Z,99561.28
2022-12-14T01:38:22.934Z,99563.50
2022-12-14T01:40:50.216Z,99555.53
2022-12-14T01:43:17.469Z,99560.00
2022-12-14T01:45:44.672Z,99557.38
2022-12-14T01:48:13.440Z,99544.47
2022-12-14T01:50:43.692Z,99555.25
2022-12-14T01:53:15.916Z,99560.56
2022-12-14T01:55:48.808Z,99550.59
2022-12-14T01:58:24.006Z,99553.28
2022-12-14T02:00:56.334Z,99549.06
2022-12-14T02:03:26.643Z,99551.19
2022-12-14T02:05:58.200Z,99577.78
2022-12-14T02:08:27.292Z,99573.38
2022-12-14T02:10:55.770Z,99565.03
2022-12-14T02:13:27.268Z,99566.13
2022-12-14T02:15:54.919Z,99561.59
2022-12-14T02:18:24.554Z,99561.84
2022-12-14T02:21:01.485Z,99542.50
2022-12-14T02:23:42.909Z,99532.25
2022-12-14T02:26:31.163Z,99532.94
2022-12-14T02:29:16.890Z,99523.16
2022-12-14T02:31:47.038Z,99513.66
2022-12-14T02:34:51.711Z,99506.16
2022-12-14T02:37:24.936Z,99497.78
2022-12-14T02:40:14.471Z,99477.81
2022-12-14T02:42:56.632Z,99478.34
2022-12-14T02:45:42.481Z,99499.34
2022-12-14T02:48:16.758Z,99492.75
2022-12-14T02:50:51.772Z,99491.47
2022-12-14T02:53:26.699Z,99467.03
2022-12-14T02:55:54.942Z,99459.09
2022-12-14T02:58:41.445Z,99460.63
2022-12-14T03:01:12.728Z,99460.72
2022-12-14T03:03:40.974Z,99471.53
2022-12-14T03:06:26.225Z,99473.03
2022-12-14T03:09:16.858Z,99462.63
2022-12-14T03:12:07.612Z,99465.34
2022-12-14T03:14:40.013Z,99469.53
2022-12-14T03:17:19.276Z,99464.78
2022-12-14T03:20:07.142Z,99472.25
2022-12-14T03:22:49.535Z,99478.69
2022-12-14T03:25:22.442Z,99479.00
2022-12-14T03:27:53.704Z,99468.34
2022-12-14T03:30:43.841Z,99459.09
2022-12-14T03:33:13.790Z,99465.53
2022-12-14T03:35:50.693Z,99462.28
2022-12-14T03:38:21.426Z,99463.16
2022-12-14T03:40:53.504Z,99458.31
2022-12-14T03:43:42.926Z,99458.78
2022-12-14T03:46:41.832Z,99451.19
2022-12-14T03:49:17.303Z,99433.19
2022-12-14T03:52:00.384Z,99434.19
2022-12-14T03:54:33.793Z,99421.19
2022-12-14T03:57:15.049Z,99421.94
2022-12-14T03:59:54.246Z,99420.44
2022-12-14T04:02:36.311Z,99417.28
2022-12-14T04:05:12.541Z,99427.91
2022-12-14T04:07:46.109Z,99432.53
2022-12-14T04:10:39.248Z,99427.47
2022-12-14T04:13:29.065Z,99420.22
2022-12-14T04:16:18.782Z,99411.34
2022-12-14T04:19:00.314Z,99405.09
2022-12-14T04:21:38.237Z,99418.38
2022-12-14T04:24:37.703Z,99401.50
2022-12-14T04:27:30.147Z,99393.81
2022-12-14T04:30:00.421Z,99410.16
2022-12-14T04:32:53.004Z,99405.72
2022-12-14T04:35:39.963Z,99400.06
2022-12-14T04:38:11.431Z,99399.69
2022-12-14T04:40:44.209Z,99408.91
2022-12-14T04:43:15.512Z,99420.34
2022-12-14T04:45:53.973Z,99426.13
2022-12-14T04:48:52.240Z,99422.63
2022-12-14T04:51:50.960Z,99431.31
2022-12-14T04:54:39.960Z,99429.78
2022-12-14T04:57:18.977Z,99429.81
2022-12-14T04:59:47.655Z,99436.09
2022-12-14T05:02:52.682Z,99427.81
2022-12-14T05:05:27.400Z,99432.19
2022-12-14T05:08:10.349Z,99431.47
2022-12-14T05:11:39.457Z,99435.00
2022-12-14T05:13:55.218Z,99428.25
2022-12-14T05:16:23.462Z,99415.50
2022-12-14T05:18:51.117Z,99419.44
2022-12-14T05:21:36.889Z,99419.19
2022-12-14T05:24:04.444Z,99419.63
2022-12-14T05:26:32.040Z,99422.69
2022-12-14T05:28:59.355Z,99419.38
2022-12-14T05:31:27.023Z,99410.25
2022-12-14T05:33:54.304Z,99413.97
2022-12-14T05:36:21.931Z,99407.53
2022-12-14T05:38:49.241Z,99404.91
2022-12-14T05:41:16.443Z,99412.47
2022-12-14T05:43:43.732Z,99428.19
2022-12-14T05:46:12.104Z,99425.88
2022-12-14T05:48:39.643Z,99426.56
2022-12-14T05:51:08.842Z,99439.25
2022-12-14T05:53:36.615Z,99449.88
2022-12-14T05:56:05.760Z,99446.06
2022-12-14T05:58:34.787Z,99450.31
2022-12-14T06:01:09.149Z,99451.25
2022-12-14T06:03:38.900Z,99453.88
2022-12-14T06:06:09.445Z,99462.94
2022-12-14T06:08:39.518Z,99452.84
2022-12-14T06:11:11.970Z,99448.41
2022-12-14T06:13:40.037Z,99454.66
2022-12-14T06:16:26.592Z,99460.94
2022-12-14T06:18:58.826Z,99462.28
2022-12-14T06:21:29.140Z,99462.81
2022-12-14T06:23:56.975Z,99459.78
2022-12-14T06:26:25.276Z,99453.25
2022-12-14T06:28:52.943Z,99451.84
2022-12-14T06:31:22.603Z,99446.00
2022-12-14T06:33:50.453Z,99451.19
2022-12-14T06:36:24.054Z,99459.50
2022-12-14T06:38:51.929Z,99458.88
2022-12-14T06:41:20.308Z,99458.16
2022-12-14T06:43:53.278Z,99449.75
2022-12-14T06:46:24.706Z,99454.50
2022-12-14T06:48:53.522Z,99452.78
2022-12-14T06:51:22.716Z,99460.50
2022-12-14T06:53:51.911Z,99447.41
2022-12-14T06:56:20.398Z,99466.34
2022-12-14T06:58:48.232Z,99463.31
2022-12-14T07:01:21.221Z,99455.19
2022-12-14T07:03:50.956Z,99471.13
2022-12-14T07:06:18.194Z,99480.81
2022-12-14T07:08:45.937Z,99474.97
2022-12-14T07:11:15.260Z,99481.53
2022-12-14T07:13:42.771Z,99490.78
2022-12-14T07:16:16.390Z,99494.41
2022-12-14T07:18:44.035Z,99497.88
2022-12-14T07:21:13.733Z,99497.34
2022-12-14T07:23:42.527Z,99504.44
2022-12-14T07:26:13.272Z,99501.19
2022-12-14T07:28:41.185Z,99509.75
2022-12-14T07:31:12.339Z,99519.88
2022-12-14T07:33:39.687Z,99525.03
2022-12-14T07:36:26.220Z,99530.03
2022-12-14T07:38:55.652Z,99531.78
2022-12-14T07:41:25.746Z,99532.66
2022-12-14T07:43:54.565Z,99532.34
2022-12-14T07:46:24.213Z,99536.13
2022-12-14T07:48:56.810Z,99538.88
2022-12-14T07:51:26.542Z,99543.03
2022-12-14T07:53:54.720Z,99547.50
2022-12-14T07:56:25.099Z,99541.88
2022-12-14T07:58:54.183Z,99541.97
2022-12-14T08:01:23.702Z,99544.97
2022-12-14T08:03:52.280Z,99542.13
2022-12-14T08:06:20.916Z,99545.47
2022-12-14T08:08:49.288Z,99546.31
2022-12-14T08:11:16.867Z,99558.44
2022-12-14T08:13:44.325Z,99555.38
2022-12-14T08:16:14.105Z,99558.91
2022-12-14T08:18:42.421Z,99562.75
2022-12-14T08:21:11.011Z,99555.81
2022-12-14T08:23:39.051Z,99560.25
2022-12-14T08:26:06.538Z,99558.50
2022-12-14T08:28:35.411Z,99552.94
2022-12-14T08:31:08.479Z,99554.38
2022-12-14T08:33:36.954Z,99552.69
2022-12-14T08:36:27.869Z,99562.41
2022-12-14T08:38:56.791Z,99568.09
2022-12-14T08:41:25.141Z,99569.06
2022-12-14T08:43:57.220Z,99570.56
2022-12-14T08:46:25.998Z,99556.28
2022-12-14T08:48:55.073Z,99567.31
2022-12-14T08:51:23.574Z,99568.25
2022-12-14T08:53:51.664Z,99566.22
2022-12-14T08:56:21.455Z,99579.09
2022-12-14T08:58:49.218Z,99580.03
2022-12-14T09:01:34.049Z,99582.06
2022-12-14T09:04:04.935Z,99579.38
2022-12-14T09:06:35.015Z,99586.06
2022-12-14T09:09:02.191Z,99586.19
2022-12-14T09:11:29.336Z,99577.94
2022-12-14T09:13:56.848Z,99582.38
2022-12-14T09:16:28.612Z,99591.72
2022-12-14T09:18:56.075Z,99603.50
2022-12-14T09:21:24.059Z,99603.28
2022-12-14T09:23:57.278Z,99606.41
2022-12-14T09:26:26.597Z,99631.22
2022-12-14T09:28:56.360Z,99629.41
2022-12-14T09:31:26.216Z,99620.50
2022-12-14T09:33:54.850Z,99626.41
2022-12-14T09:36:27.690Z,99633.75
2022-12-14T09:38:56.677Z,99631.66
2022-12-14T09:41:33.005Z,99633.06
2022-12-14T09:44:17.920Z,99625.13
2022-12-14T09:46:54.896Z,99636.66
2022-12-14T09:49:25.692Z,99635.91
2022-12-14T09:51:57.395Z,99631.59
2022-12-14T09:54:31.005Z,99632.09
2022-12-14T09:57:01.761Z,99635.66
2022-12-14T09:59:31.868Z,99635.34
2022-12-14T10:02:32.364Z,99623.72
2022-12-14T10:05:25.058Z,99635.16
2022-12-14T10:08:18.377Z,99639.09
2022-12-14T10:10:51.564Z,99632.84
2022-12-14T10:13:29.394Z,99627.28
2022-12-14T10:16:27.200Z,99626.03
2022-12-14T10:19:17.326Z,99638.97
2022-12-14T10:21:51.658Z,99649.66
2022-12-14T10:24:42.897Z,99640.78
2022-12-14T10:27:11.376Z,99639.78
2022-12-14T10:29:47.955Z,99641.50
2022-12-14T10:32:25.753Z,99633.66
2022-12-14T10:34:53.289Z,99628.38
2022-12-14T10:37:27.713Z,99632.75
2022-12-14T10:40:17.581Z,99630.69
2022-12-14T10:42:49.790Z,99636.31
2022-12-14T10:45:41.450Z,99631.84
2022-12-14T10:48:46.595Z,99632.25
2022-12-14T10:51:22.195Z,99635.38
2022-12-14T10:54:00.299Z,99642.69
2022-12-14T10:56:33.532Z,99638.03
2022-12-14T10:59:22.098Z,99647.53
2022-12-14T11:02:04.117Z,99648.53
2022-12-14T11:04:34.682Z,99642.16
2022-12-14T11:07:10.291Z,99652.78
2022-12-14T11:09:39.161Z,99658.53
2022-12-14T11:12:32.797Z,99660.59
2022-12-14T11:15:03.103Z,99647.72
2022-12-14T11:17:39.797Z,99651.78
2022-12-14T11:20:22.407Z,99649.59
2022-12-14T11:22:51.450Z,99639.56
2022-12-14T11:25:37.653Z,99651.31
2022-12-14T11:28:37.804Z,99648.38
2022-12-14T11:31:13.742Z,99650.88
2022-12-14T11:33:45.734Z,99657.13
2022-12-14T11:36:27.009Z,99653.28
2022-12-14T11:38:59.476Z,99660.91
2022-12-14T11:41:34.011Z,99669.69
2022-12-14T11:44:07.060Z,99663.44
2022-12-14T11:46:44.913Z,99667.69
2022-12-14T11:49:28.722Z,99665.63
2022-12-14T11:51:55.911Z,99678.63
2022-12-14T11:54:23.300Z,99665.50
2022-12-14T11:56:51.233Z,99657.63
2022-12-14T11:59:19.344Z,99660.47
2022-12-14T12:01:46.922Z,99654.69
2022-12-14T12:04:15.752Z,99657.28
2022-12-14T12:06:43.193Z,99653.47
2022-12-14T12:09:28.057Z,99648.31
2022-12-14T12:11:55.354Z,99641.28
2022-12-14T12:14:29.874Z,99646.72
2022-12-14T12:16:57.827Z,99652.63
2022-12-14T12:19:30.637Z,99646.78
2022-12-14T12:22:01.077Z,99649.72
2022-12-14T12:25:08.371Z,99650.94
2022-12-14T12:27:33.070Z,99656.31
2022-12-14T12:30:07.468Z,99660.97
2022-12-14T12:32:44.043Z,99669.47
2022-12-14T12:35:50.111Z,99666.91
2022-12-14T12:38:23.223Z,99667.53
2022-12-14T12:40:56.323Z,99678.94
2022-12-14T12:43:32.218Z,99666.28
2022-12-14T12:46:02.795Z,99678.44
2022-12-14T12:48:39.801Z,99679.75
2022-12-14T12:51:17.182Z,99675.91
2022-12-14T12:53:46.086Z,99678.28
2022-12-14T12:56:16.940Z,99666.97
2022-12-14T12:58:50.623Z,99666.03
2022-12-14T13:01:47.922Z,99670.34
2022-12-14T13:04:37.461Z,99661.84
2022-12-14T13:07:23.007Z,99659.59
2022-12-14T13:09:55.178Z,99663.25
2022-12-14T13:12:44.019Z,99668.47
2022-12-14T13:15:37.699Z,99665.06
2022-12-14T13:18:49.363Z,99658.66
2022-12-14T13:21:28.477Z,99659.25
2022-12-14T13:23:55.996Z,99656.25
2022-12-14T13:26:57.872Z,99650.88
2022-12-14T13:29:43.636Z,99652.41
2022-12-14T13:32:33.835Z,99654.03
2022-12-14T13:35:29.239Z,99657.16
2022-12-14T13:38:08.638Z,99675.94
2022-12-14T13:40:38.964Z,99673.66
2022-12-14T13:43:29.667Z,99677.81
2022-12-14T13:46:04.703Z,99670.25
2022-12-14T13:48:37.334Z,99677.53
2022-12-14T13:51:06.577Z,99667.84
2022-12-14T13:53:58.838Z,99671.50
2022-12-14T13:56:33.596Z,99675.25
2022-12-14T13:59:04.111Z,99675.25
2022-12-14T14:01:40.620Z,99671.34
2022-12-14T14:04:11.043Z,99679.34
2022-12-14T14:06:40.802Z,99679.88
2022-12-14T14:09:26.474Z,99674.03
2022-12-14T14:12:19.551Z,99681.44
2022-12-14T14:14:58.021Z,99689.25
2022-12-14T14:17:37.354Z,99693.53
2022-12-14T14:20:33.799Z,99693.03
2022-12-14T14:23:16.731Z,99701.91
2022-12-14T14:25:50.177Z,99699.91
2022-12-14T14:28:22.998Z,99706.22
2022-12-14T14:30:59.859Z,99705.28
2022-12-14T14:33:46.062Z,99714.78
2022-12-14T14:36:41.123Z,99712.41
2022-12-14T14:39:55.447Z,99717.78
2022-12-14T14:42:21.892Z,99733.31
2022-12-14T14:44:55.018Z,99742.38
2022-12-14T14:47:28.619Z,99740.06
2022-12-14T14:50:02.322Z,99731.38
2022-12-14T14:52:41.744Z,99721.34
2022-12-14T14:55:52.066Z,99727.16
2022-12-14T14:58:35.840Z,99728.25
2022-12-14T15:01:06.445Z,99708.31
2022-12-14T15:03:53.463Z,99716.47
2022-12-14T15:06:27.757Z,99725.16
2022-12-14T15:09:10.998Z,99746.00
2022-12-14T15:11:53.315Z,99743.59
2022-12-14T15:14:53.370Z,99733.69
2022-12-14T15:17:23.461Z,99749.94
2022-12-14T15:19:53.465Z,99735.22
2022-12-14T15:22:23.809Z,99736.81
2022-12-14T15:24:53.682Z,99738.97
2022-12-14T15:27:27.598Z,99740.16
2022-12-14T15:30:14.471Z,99747.59
2022-12-14T15:32:47.613Z,99754.94
2022-12-14T15:35:23.457Z,99749.66
2022-12-14T15:37:58.008Z,99745.75
2022-12-14T15:40:30.229Z,99738.81
2022-12-14T15:43:00.002Z,99734.81
2022-12-14T15:45:34.842Z,99744.81
2022-12-14T15:48:15.247Z,99746.38
2022-12-14T15:50:46.189Z,99751.06
2022-12-14T15:53:18.049Z,99758.28
2022-12-14T15:55:50.018Z,99766.00
2022-12-14T15:58:32.570Z,99761.13
2022-12-14T16:01:17.779Z,99776.25
2022-12-14T16:03:48.546Z,99772.25
2022-12-14T16:06:17.404Z,99764.44
2022-12-14T16:08:50.385Z,99755.00
2022-12-14T16:11:24.959Z,99768.47
2022-12-14T16:13:52.527Z,99779.44
2022-12-14T16:16:19.926Z,99776.59
2022-12-14T16:18:51.297Z,99787.50
2022-12-14T16:21:37.113Z,99785.59
2022-12-14T16:24:23.408Z,99788.91
2022-12-14T16:26:59.121Z,99788.84
2022-12-14T16:29:31.594Z,99788.13
2022-12-14T16:32:07.128Z,99777.69
2022-12-14T16:34:34.463Z,99781.75
2022-12-14T16:39:52.529Z,99772.47
2022-12-14T16:42:22.632Z,99778.50
2022-12-14T16:44:53.796Z,99772.88
2022-12-14T16:47:21.491Z,99785.41
2022-12-14T16:50:00.336Z,99778.97
2022-12-14T16:55:26.369Z,99780.34
2022-12-14T16:57:56.104Z,99781.88
2022-12-14T17:00:23.336Z,99787.25
2022-12-14T17:03:18.679Z,99790.63
2022-12-14T17:05:52.327Z,99796.78
2022-12-14T17:08:19.722Z,99795.13
2022-12-14T17:10:47.178Z,99807.25
2022-12-14T17:13:14.485Z,99811.56
2022-12-14T17:16:05.842Z,99803.63
2022-12-14T17:18:37.739Z,99794.84
2022-12-14T17:21:05.792Z,99793.59
2022-12-14T17:23:35.375Z,99784.78
2022-12-14T17:26:02.685Z,99785.19
2022-12-14T17:28:31.481Z,99783.75
2022-12-14T17:31:01.653Z,99790.94
2022-12-14T17:33:30.187Z,99792.94
2022-12-14T17:35:57.793Z,99796.72
2022-12-14T17:38:25.109Z,99807.91
2022-12-14T17:40:53.827Z,99828.38
2022-12-14T17:43:25.102Z,99832.59
2022-12-14T17:45:53.117Z,99843.47
2022-12-14T17:48:20.970Z,99843.53
2022-12-14T17:50:49.933Z,99845.13
2022-12-14T17:53:21.720Z,99843.16
2022-12-14T17:55:48.913Z,99845.75
2022-12-14T17:58:16.886Z,99859.25
2022-12-14T18:01:03.453Z,99859.66
2022-12-14T18:03:33.163Z,99855.69
2022-12-14T18:06:02.267Z,99859.97
2022-12-14T18:08:29.626Z,99860.88
2022-12-14T18:11:00.008Z,99858.19
2022-12-14T18:13:28.678Z,99856.16
2022-12-14T18:15:56.479Z,99875.63
2022-12-14T18:18:27.523Z,99879.34
2022-12-14T18:21:00.470Z,99880.94
2022-12-14T18:23:29.845Z,99885.78
2022-12-14T18:25:59.117Z,99880.78
2022-12-14T18:28:26.594Z,99888.94
2022-12-14T18:30:57.297Z,99889.63
2022-12-14T18:33:27.644Z,99890.09
2022-12-14T18:35:56.499Z,99887.06
2022-12-14T18:38:24.637Z,99885.59
2022-12-14T18:40:53.837Z,99893.91
2022-12-14T18:43:23.951Z,99887.16
2022-12-14T18:45:53.102Z,99890.88
2022-12-14T18:48:21.466Z,99891.56
2022-12-14T18:50:49.526Z,99894.53
2022-12-14T18:53:19.834Z,99900.75
2022-12-14T18:55:48.093Z,99906.81
2022-12-14T18:58:24.121Z,99904.97
2022-12-14T19:00:54.610Z,99905.16
2022-12-14T19:03:23.096Z,99905.38
2022-12-14T19:05:50.541Z,99902.84
2022-12-14T19:08:17.984Z,99895.72
2022-12-14T19:10:48.058Z,99902.03
2022-12-14T19:13:21.644Z,99905.09
2022-12-14T19:15:52.329Z,99904.28
2022-12-14T19:18:19.636Z,99905.84
2022-12-14T19:20:49.519Z,99911.34
2022-12-14T19:23:19.344Z,99922.69
2022-12-14T19:25:47.195Z,99930.56
2022-12-14T19:28:31.462Z,99937.31
2022-12-14T19:31:01.172Z,99940.69
2022-12-14T19:33:29.850Z,99944.16
2022-12-14T19:35:57.664Z,99942.50
2022-12-14T19:38:24.966Z,99936.91
2022-12-14T19:41:01.094Z,99937.06
2022-12-14T19:43:29.838Z,99934.56
2022-12-14T19:45:57.513Z,99924.56
2022-12-14T19:48:24.759Z,99923.19
2022-12-14T19:50:52.168Z,99929.44
2022-12-14T19:53:23.771Z,99935.06
2022-12-14T19:55:52.592Z,99931.78
2022-12-14T19:58:22.037Z,99924.25
2022-12-14T20:00:50.594Z,99916.41
2022-12-14T20:03:18.348Z,99921.44
2022-12-14T20:05:53.605Z,99916.72
2022-12-14T20:08:21.482Z,99930.00
2022-12-14T20:10:49.264Z,99927.72
2022-12-14T20:13:16.501Z,99919.50
2022-12-14T20:15:58.357Z,99931.28
2022-12-14T20:18:26.460Z,99930.06
2022-12-14T20:20:53.833Z,99942.69
2022-12-14T20:23:22.041Z,99942.69
2022-12-14T20:25:49.334Z,99939.72
2022-12-14T20:28:16.691Z,99948.72
2022-12-14T20:30:45.279Z,99948.91
2022-12-14T20:33:13.108Z,99951.63
2022-12-14T20:35:40.349Z,99951.06
2022-12-14T20:38:07.879Z,99949.75
2022-12-14T20:40:38.808Z,99953.00
2022-12-14T20:43:07.276Z,99956.63
2022-12-14T20:45:43.945Z,99952.78
2022-12-14T20:48:11.387Z,99957.66
2022-12-14T20:50:40.364Z,99956.75
2022-12-14T20:53:07.939Z,99962.66
2022-12-14T20:55:35.637Z,99978.53
2022-12-14T20:58:02.901Z,99983.41
2022-12-14T21:00:30.453Z,99991.53
2022-12-14T21:02:58.070Z,99985.97
2022-12-14T21:05:25.586Z,99978.91
2022-12-14T21:07:53.018Z,99981.91
2022-12-14T21:10:20.288Z,99990.63
2022-12-14T21:12:48.640Z,99987.34
2022-12-14T21:15:16.114Z,99965.84
2022-12-14T21:17:46.327Z,99959.97
2022-12-14T21:20:13.682Z,99962.91
2022-12-14T21:22:41.023Z,99972.81
2022-12-14T21:25:08.505Z,99972.59
2022-12-14T21:27:40.770Z,99979.09
2022-12-14T21:30:10.175Z,99985.16
2022-12-14T21:32:38.422Z,99996.16
2022-12-14T21:35:06.294Z,99994.97
2022-12-14T21:37:33.701Z,99987.59
2022-12-14T21:40:03.649Z,99987.91
2022-12-14T21:42:30.835Z,99982.72
2022-12-14T21:44:57.981Z,99979.09
2022-12-14T21:47:27.261Z,99987.34
2022-12-14T21:49:54.923Z,99987.44
2022-12-14T21:52:24.992Z,99994.69
2022-12-14T21:54:52.233Z,100000.97
2022-12-14T21:57:40.643Z,99999.53
2022-12-14T22:00:09.770Z,99990.84
2022-12-14T22:02:39.898Z,99992.00
2022-12-14T22:05:07.639Z,99996.16
2022-12-14T22:07:35.070Z,99998.53
2022-12-14T22:10:02.505Z,99998.69
2022-12-14T22:12:29.804Z,100003.28
2022-12-14T22:14:57.190Z,100014.56
2022-12-14T22:17:24.425Z,100011.88
2022-12-14T22:19:54.234Z,100010.44
2022-12-14T22:22:21.534Z,100017.28
2022-12-14T22:24:49.888Z,100010.78
2022-12-14T22:27:17.734Z,100018.06
2022-12-14T22:29:45.037Z,100017.00
2022-12-14T22:32:12.950Z,100019.72
2022-12-14T22:34:40.763Z,100024.34
2022-12-14T22:37:08.444Z,100016.75
2022-12-14T22:39:36.007Z,100016.22
2022-12-14T22:42:03.353Z,100020.53
2022-12-14T22:44:30.824Z,100018.94
2022-12-14T22:46:58.314Z,100022.22
2022-12-14T22:49:25.652Z,100025.50
2022-12-14T22:51:53.071Z,100032.56
2022-12-14T22:54:25.448Z,100039.09
2022-12-14T22:57:04.921Z,100036.09
2022-12-14T22:59:45.502Z,100030.16
2022-12-14T23:02:13.086Z,100036.91
2022-12-14T23:04:40.595Z,100048.06
2022-12-14T23:07:08.020Z,100046.16
2022-12-14T23:09:53.873Z,100036.66
2022-12-14T23:12:39.783Z,100033.13
2022-12-14T23:15:25.622Z,100030.16
2022-12-14T23:18:20.099Z,100030.97
2022-12-14T23:21:06.094Z,100044.53
2022-12-14T23:23:51.851Z,100036.41
2022-12-14T23:26:37.642Z,100045.63
2022-12-14T23:29:23.576Z,100047.78
2022-12-14T23:32:09.438Z,100031.50
2022-12-14T23:34:55.240Z,100029.06
2022-12-14T23:37:41.378Z,100041.00
2022-12-14T23:40:27.765Z,100038.28
2022-12-14T23:43:13.587Z,100033.41
2022-12-14T23:46:00.228Z,100042.34
2022-12-14T23:48:46.706Z,100050.50
2022-12-14T23:51:32.588Z,100064.91
2022-12-14T23:54:18.315Z,100057.03
2022-12-14T23:57:04.207Z,100054.03
2022-12-14T23:59:50.214Z,100043.16
